createdAt,value
2023-02-01T00:00:03.504Z,46.20
2023-02-01T00:02:31.199Z,5.43
2023-02-01T00:04:58.914Z,57.85
2023-02-01T00:07:26.506Z,36.50
2023-02-01T00:09:54.793Z,7.78
2023-02-01T00:12:22.868Z,37.78
2023-02-01T00:14:50.574Z,6.05
2023-02-01T00:17:18.310Z,5.75
2023-02-01T00:19:45.931Z,9.23
2023-02-01T00:22:13.523Z,11.07
2023-02-01T00:24:41.159Z,9.00
2023-02-01T00:27:08.828Z,20.90
2023-02-01T00:29:36.469Z,7.70
2023-02-01T00:32:04.166Z,13.27
2023-02-01T00:34:31.975Z,11.05
2023-02-01T00:37:01.376Z,16.40
2023-02-01T00:39:29.087Z,14.63
2023-02-01T00:41:57.051Z,18.52
2023-02-01T00:44:24.728Z,40.67
2023-02-01T00:46:52.464Z,31.30
2023-02-01T00:49:20.108Z,24.88
2023-02-01T00:51:48.022Z,35.03
2023-02-01T00:54:15.769Z,24.13
2023-02-01T00:56:43.570Z,18.48
2023-02-01T00:59:14.244Z,26.52
2023-02-01T01:01:42.127Z,41.35
2023-02-01T01:04:10.085Z,42.28
2023-02-01T01:06:38.011Z,51.10
2023-02-01T01:09:07.001Z,23.60
2023-02-01T01:11:35.998Z,34.00
2023-02-01T01:14:03.964Z,41.65
2023-02-01T01:16:32.605Z,31.92
2023-02-01T01:19:00.267Z,19.75
2023-02-01T01:21:28.450Z,49.35
2023-02-01T01:23:56.162Z,44.08
2023-02-01T01:26:24.988Z,30.95
2023-02-01T01:28:52.747Z,30.02
2023-02-01T01:31:22.225Z,43.15
2023-02-01T01:33:50.941Z,23.35
2023-02-01T01:36:18.665Z,38.83
2023-02-01T01:38:46.362Z,26.35
2023-02-01T01:41:17.032Z,25.30
2023-02-01T01:43:52.847Z,38.33
2023-02-01T01:46:21.917Z,29.15
2023-02-01T01:48:56.253Z,45.05
2023-02-01T01:51:25.954Z,41.35
2023-02-01T01:53:57.534Z,21.20
2023-02-01T01:56:25.316Z,31.42
2023-02-01T01:58:54.114Z,43.40
2023-02-01T02:01:21.931Z,36.13
2023-02-01T02:03:49.776Z,32.33
2023-02-01T02:06:28.101Z,36.92
2023-02-01T02:08:55.874Z,41.67
2023-02-01T02:11:24.625Z,27.45
2023-02-01T02:13:53.700Z,25.73
2023-02-01T02:16:22.535Z,47.85
2023-02-01T02:18:55.489Z,48.70
2023-02-01T02:21:23.031Z,32.40
2023-02-01T02:24:06.298Z,26.10
2023-02-01T02:26:40.767Z,25.70
2023-02-01T02:29:17.626Z,38.53
2023-02-01T02:32:04.224Z,36.05
2023-02-01T02:34:42.165Z,38.15
2023-02-01T02:37:17.961Z,29.50
2023-02-01T02:39:51.775Z,27.13
2023-02-01T02:42:52.364Z,27.80
2023-02-01T02:45:41.118Z,50.63
2023-02-01T02:50:59.644Z,43.03
2023-02-01T02:54:08.688Z,37.72
2023-02-01T02:56:55.863Z,57.40
2023-02-01T02:59:44.935Z,29.65
2023-02-01T03:02:31.748Z,43.00
2023-02-01T03:04:59.548Z,45.83
2023-02-01T03:07:46.109Z,35.47
2023-02-01T03:10:24.341Z,55.05
2023-02-01T03:12:58.893Z,44.83
2023-02-01T03:15:34.129Z,36.15
2023-02-01T03:18:03.141Z,25.77
2023-02-01T03:20:31.635Z,18.67
2023-02-01T03:23:00.349Z,44.28
2023-02-01T03:25:29.629Z,26.52
2023-02-01T03:27:59.595Z,36.20
2023-02-01T03:30:36.687Z,31.80
2023-02-01T03:33:08.470Z,38.15
2023-02-01T03:35:41.628Z,40.40
2023-02-01T03:38:20.248Z,26.20
2023-02-01T03:40:48.947Z,19.55
2023-02-01T03:43:19.017Z,7.88
2023-02-01T03:45:48.408Z,20.67
2023-02-01T03:48:17.106Z,12.60
2023-02-01T03:50:51.417Z,55.78
2023-02-01T03:53:21.728Z,45.78
2023-02-01T03:55:49.381Z,47.25
2023-02-01T03:58:24.617Z,48.55
2023-02-01T04:00:56.101Z,43.55
2023-02-01T04:03:24.044Z,68.15
2023-02-01T04:05:52.028Z,46.28
2023-02-01T04:08:20.474Z,38.78
2023-02-01T04:10:49.238Z,39.17
2023-02-01T04:13:17.125Z,47.40
2023-02-01T04:15:44.793Z,54.58
2023-02-01T04:18:12.448Z,35.55
2023-02-01T04:20:40.294Z,69.25
2023-02-01T04:23:08.038Z,68.50
2023-02-01T04:25:35.814Z,38.80
2023-02-01T04:28:03.506Z,37.97
2023-02-01T04:30:31.333Z,31.75
2023-02-01T04:32:59.114Z,38.30
2023-02-01T04:35:26.911Z,69.68
2023-02-01T04:37:54.645Z,32.50
2023-02-01T04:40:22.813Z,15.90
2023-02-01T04:42:50.651Z,23.73
2023-02-01T04:45:18.456Z,44.45
2023-02-01T04:47:46.249Z,40.15
2023-02-01T04:50:14.024Z,24.13
2023-02-01T04:52:42.485Z,56.40
2023-02-01T04:55:10.704Z,41.25
2023-02-01T04:57:39.875Z,47.65
2023-02-01T05:00:07.820Z,55.08
2023-02-01T05:02:36.022Z,40.42
2023-02-01T05:05:04.044Z,34.80
2023-02-01T05:07:31.719Z,61.25
2023-02-01T05:10:00.385Z,40.80
2023-02-01T05:12:46.828Z,35.95
2023-02-01T05:15:14.379Z,31.80
2023-02-01T05:17:42.009Z,71.88
2023-02-01T05:20:10.569Z,38.47
2023-02-01T05:22:38.187Z,53.28
2023-02-01T05:25:08.250Z,73.07
2023-02-01T05:27:36.055Z,34.75
2023-02-01T05:30:04.986Z,44.72
2023-02-01T05:32:33.009Z,53.78
2023-02-01T05:35:00.689Z,57.78
2023-02-01T05:37:28.479Z,46.65
2023-02-01T05:39:56.423Z,53.42
2023-02-01T05:42:24.646Z,49.10
2023-02-01T05:44:52.172Z,41.10
2023-02-01T05:47:19.841Z,50.13
2023-02-01T05:49:47.636Z,49.65
2023-02-01T05:52:20.225Z,80.75
2023-02-01T05:54:48.614Z,71.43
2023-02-01T05:57:16.521Z,50.13
2023-02-01T05:59:45.717Z,39.67
2023-02-01T06:02:13.929Z,51.53
2023-02-01T06:04:41.518Z,63.03
2023-02-01T06:07:10.157Z,68.57
2023-02-01T06:09:38.154Z,64.05
2023-02-01T06:12:07.022Z,35.90
2023-02-01T06:14:34.572Z,27.63
2023-02-01T06:17:02.439Z,51.88
2023-02-01T06:19:30.191Z,19.50
2023-02-01T06:21:57.851Z,72.90
2023-02-01T06:24:25.670Z,69.50
2023-02-01T06:26:53.463Z,59.42
2023-02-01T06:29:21.250Z,38.83
2023-02-01T06:31:49.061Z,89.75
2023-02-01T06:34:16.662Z,46.72
2023-02-01T06:36:44.270Z,33.92
2023-02-01T06:39:13.847Z,49.65
2023-02-01T06:41:41.588Z,70.30
2023-02-01T06:44:09.302Z,51.58
2023-02-01T06:46:37.159Z,72.05
2023-02-01T06:49:05.091Z,64.38
2023-02-01T06:51:32.674Z,72.55
2023-02-01T06:54:00.300Z,58.38
2023-02-01T06:56:28.243Z,67.35
2023-02-01T06:58:56.277Z,63.45
2023-02-01T07:01:24.059Z,48.97
2023-02-01T07:03:52.485Z,42.10
2023-02-01T07:06:20.416Z,52.95
2023-02-01T07:08:48.278Z,19.52
2023-02-01T07:11:17.299Z,16.45
2023-02-01T07:13:45.279Z,13.30
2023-02-01T07:16:14.398Z,44.40
2023-02-01T07:18:42.280Z,24.88
2023-02-01T07:21:10.837Z,38.72
2023-02-01T07:23:39.009Z,24.27
2023-02-01T07:26:07.955Z,20.52
2023-02-01T07:28:37.009Z,14.82
2023-02-01T07:31:09.060Z,20.10
2023-02-01T07:33:36.925Z,15.75
2023-02-01T07:36:05.766Z,22.58
2023-02-01T07:38:33.600Z,32.42
2023-02-01T07:41:05.039Z,24.80
2023-02-01T07:43:32.976Z,20.52
2023-02-01T07:46:01.187Z,17.63
2023-02-01T07:48:29.474Z,24.60
2023-02-01T07:51:00.836Z,20.67
2023-02-01T07:53:28.895Z,16.38
2023-02-01T07:55:57.213Z,20.75
2023-02-01T07:58:25.200Z,22.70
2023-02-01T08:01:11.764Z,27.85
2023-02-01T08:03:39.658Z,25.63
2023-02-01T08:06:14.444Z,14.52
2023-02-01T08:08:42.305Z,12.90
2023-02-01T08:11:10.556Z,7.32
2023-02-01T08:13:39.116Z,14.82
2023-02-01T08:16:08.189Z,19.13
2023-02-01T08:18:36.803Z,15.85
2023-02-01T08:21:05.304Z,26.95
2023-02-01T08:23:33.240Z,27.13
2023-02-01T08:26:08.180Z,29.38
2023-02-01T08:28:37.998Z,25.00
2023-02-01T08:31:08.598Z,20.30
2023-02-01T08:33:38.404Z,50.95
2023-02-01T08:36:08.760Z,12.07
2023-02-01T08:38:40.515Z,18.75
2023-02-01T08:41:10.731Z,15.10
2023-02-01T08:46:08.162Z,13.43
2023-02-01T08:48:36.389Z,13.25
2023-02-01T08:51:10.182Z,17.00
2023-02-01T08:53:42.399Z,10.40
2023-02-01T08:56:12.170Z,18.98
2023-02-01T08:58:41.359Z,33.85
2023-02-01T09:01:13.686Z,14.55
2023-02-01T09:03:41.917Z,52.42
2023-02-01T09:06:11.646Z,35.90
2023-02-01T09:08:41.968Z,25.75
2023-02-01T09:11:13.070Z,21.95
2023-02-01T09:13:43.170Z,10.95
2023-02-01T09:16:12.690Z,31.85
2023-02-01T09:18:55.369Z,18.00
2023-02-01T09:21:31.556Z,20.35
2023-02-01T09:24:00.974Z,27.48
2023-02-01T09:26:33.127Z,31.17
2023-02-01T09:29:02.064Z,23.40
2023-02-01T09:31:30.069Z,30.15
2023-02-01T09:33:58.002Z,28.73
2023-02-01T09:36:25.866Z,32.55
2023-02-01T09:38:55.151Z,20.75
2023-02-01T09:41:46.330Z,24.83
2023-02-01T09:44:44.137Z,28.88
2023-02-01T09:47:23.742Z,19.08
2023-02-01T09:49:54.564Z,21.55
2023-02-01T09:52:25.767Z,25.20
2023-02-01T09:54:59.548Z,20.08
2023-02-01T09:57:29.759Z,49.53
2023-02-01T10:00:04.998Z,17.20
2023-02-01T10:02:35.163Z,22.67
2023-02-01T10:07:30.569Z,17.15
2023-02-01T10:10:06.569Z,19.52
2023-02-01T10:12:54.129Z,14.15
2023-02-01T10:15:22.344Z,23.30
2023-02-01T10:18:07.023Z,18.60
2023-02-01T10:21:04.142Z,26.38
2023-02-01T10:23:38.359Z,16.83
2023-02-01T10:26:12.524Z,20.25
2023-02-01T10:28:41.042Z,16.15
2023-02-01T10:31:11.025Z,16.67
2023-02-01T10:33:43.525Z,14.38
2023-02-01T10:36:31.343Z,17.08
2023-02-01T10:39:00.751Z,9.30
2023-02-01T10:41:44.059Z,26.27
2023-02-01T10:44:16.736Z,14.27
2023-02-01T10:46:46.014Z,32.83
2023-02-01T10:49:18.579Z,24.55
2023-02-01T10:51:52.822Z,16.95
2023-02-01T10:54:22.322Z,19.92
2023-02-01T10:56:57.308Z,34.45
2023-02-01T10:59:30.097Z,47.42
2023-02-01T11:02:07.351Z,42.08
2023-02-01T11:04:39.092Z,39.13
2023-02-01T11:07:13.607Z,41.63
2023-02-01T11:09:44.900Z,16.33
2023-02-01T11:12:37.617Z,21.65
2023-02-01T11:15:16.449Z,44.08
2023-02-01T11:17:48.311Z,41.85
2023-02-01T11:20:15.986Z,41.42
2023-02-01T11:22:50.969Z,21.10
2023-02-01T11:25:19.708Z,30.23
2023-02-01T11:27:54.822Z,20.23
2023-02-01T11:30:42.932Z,39.80
2023-02-01T11:33:14.901Z,34.00
2023-02-01T11:35:43.767Z,30.33
2023-02-01T11:38:31.846Z,35.22
2023-02-01T11:41:14.968Z,12.77
2023-02-01T11:43:53.856Z,43.65
2023-02-01T11:46:26.153Z,20.73
2023-02-01T11:48:54.833Z,23.73
2023-02-01T11:51:24.464Z,44.80
2023-02-01T11:54:01.556Z,24.63
2023-02-01T11:56:50.456Z,21.20
2023-02-01T11:59:28.964Z,16.05
2023-02-01T12:02:16.051Z,22.10
2023-02-01T12:05:02.291Z,40.28
2023-02-01T12:07:54.609Z,19.73
2023-02-01T12:10:23.461Z,25.52
2023-02-01T12:13:01.121Z,26.33
2023-02-01T12:15:50.787Z,20.60
2023-02-01T12:18:37.585Z,27.33
2023-02-01T12:21:30.191Z,30.58
2023-02-01T12:24:04.057Z,23.60
2023-02-01T12:26:38.751Z,29.77
2023-02-01T12:29:20.617Z,26.83
2023-02-01T12:32:11.323Z,18.02
2023-02-01T12:35:00.660Z,23.20
2023-02-01T12:37:57.789Z,18.90
2023-02-01T12:40:41.366Z,41.92
2023-02-01T12:43:22.959Z,42.97
2023-02-01T12:46:02.079Z,27.13
2023-02-01T12:49:00.044Z,25.30
2023-02-01T12:51:31.054Z,39.58
2023-02-01T12:54:18.663Z,29.45
2023-02-01T12:56:56.582Z,27.83
2023-02-01T12:59:27.805Z,36.28
2023-02-01T13:02:00.104Z,21.65
2023-02-01T13:04:31.346Z,39.97
2023-02-01T13:07:24.649Z,27.05
2023-02-01T13:10:01.277Z,21.15
2023-02-01T13:12:51.577Z,36.55
2023-02-01T13:15:34.210Z,23.15
2023-02-01T13:18:04.852Z,11.80
2023-02-01T13:20:35.879Z,17.92
2023-02-01T13:23:26.858Z,22.17
2023-02-01T13:25:55.433Z,20.13
2023-02-01T13:28:26.258Z,32.50
2023-02-01T13:31:05.635Z,21.63
2023-02-01T13:33:53.600Z,26.08
2023-02-01T13:36:29.127Z,19.63
2023-02-01T13:39:06.200Z,13.35
2023-02-01T13:41:52.868Z,24.10
2023-02-01T13:44:54.783Z,23.35
2023-02-01T13:47:28.718Z,92.22
2023-02-01T13:49:59.203Z,19.70
2023-02-01T13:52:32.753Z,13.73
2023-02-01T13:55:24.041Z,28.10
2023-02-01T13:57:54.674Z,16.27
2023-02-01T14:00:26.813Z,27.33
2023-02-01T14:02:57.509Z,48.63
2023-02-01T14:05:25.627Z,18.75
2023-02-01T14:08:09.710Z,28.30
2023-02-01T14:10:51.681Z,20.67
2023-02-01T14:13:39.806Z,24.65
2023-02-01T14:16:07.540Z,33.20
2023-02-01T14:18:38.209Z,38.15
2023-02-01T14:21:23.048Z,16.90
2023-02-01T14:24:02.469Z,29.73
2023-02-01T14:26:31.040Z,31.70
2023-02-01T14:29:07.020Z,45.55
2023-02-01T14:31:48.914Z,43.05
2023-02-01T14:34:33.317Z,17.02
2023-02-01T14:37:02.694Z,27.05
2023-02-01T14:39:53.843Z,23.95
2023-02-01T14:42:25.146Z,18.40
2023-02-01T14:44:58.982Z,12.65
2023-02-01T14:47:30.136Z,13.35
2023-02-01T14:52:48.052Z,31.30
2023-02-01T14:55:30.926Z,25.38
2023-02-01T14:58:03.446Z,35.97
2023-02-01T15:00:34.315Z,34.47
2023-02-01T15:03:26.895Z,15.05
2023-02-01T15:06:01.954Z,28.38
2023-02-01T15:08:35.078Z,27.40
2023-02-01T15:11:05.662Z,9.07
2023-02-01T15:13:37.032Z,14.85
2023-02-01T15:16:15.550Z,12.15
2023-02-01T15:18:43.376Z,29.50
2023-02-01T15:21:28.212Z,14.73
2023-02-01T15:24:23.117Z,17.98
2023-02-01T15:26:51.156Z,14.15
2023-02-01T15:29:19.239Z,12.65
2023-02-01T15:31:51.468Z,25.52
2023-02-01T15:34:19.616Z,18.08
2023-02-01T15:37:02.035Z,16.33
2023-02-01T15:39:32.896Z,12.00
2023-02-01T15:42:03.184Z,7.18
2023-02-01T15:44:41.968Z,8.45
2023-02-01T15:47:20.172Z,14.98
2023-02-01T15:49:49.213Z,8.73
2023-02-01T15:52:22.161Z,17.30
2023-02-01T15:54:51.210Z,23.35
2023-02-01T15:57:31.858Z,8.90
2023-02-01T16:00:02.707Z,25.92
2023-02-01T16:02:45.153Z,17.67
2023-02-01T16:05:28.530Z,14.80
2023-02-01T16:08:04.954Z,15.32
2023-02-01T16:10:33.890Z,37.75
2023-02-01T16:13:01.651Z,16.73
2023-02-01T16:15:30.900Z,12.75
2023-02-01T16:17:58.904Z,19.63
2023-02-01T16:20:26.524Z,20.85
2023-02-01T16:22:54.430Z,10.10
2023-02-01T16:25:22.390Z,10.65
2023-02-01T16:27:50.257Z,17.40
2023-02-01T16:30:24.069Z,26.00
2023-02-01T16:32:56.040Z,32.45
2023-02-01T16:35:27.080Z,14.32
2023-02-01T16:37:54.901Z,31.27
2023-02-01T16:40:25.956Z,11.18
2023-02-01T16:42:56.359Z,26.45
2023-02-01T16:45:24.463Z,8.20
2023-02-01T16:47:54.070Z,13.25
2023-02-01T16:50:24.414Z,24.25
2023-02-01T16:52:54.041Z,16.35
2023-02-01T16:55:23.261Z,15.05
2023-02-01T16:57:51.696Z,24.77
2023-02-01T17:00:25.659Z,14.30
2023-02-01T17:02:54.368Z,14.43
2023-02-01T17:05:22.956Z,18.02
2023-02-01T17:07:51.276Z,37.60
2023-02-01T17:10:33.241Z,17.10
2023-02-01T17:13:02.582Z,14.60
2023-02-01T17:15:35.116Z,15.10
2023-02-01T17:18:03.297Z,12.95
2023-02-01T17:20:35.397Z,8.25
2023-02-01T17:23:06.429Z,18.45
2023-02-01T17:25:34.136Z,16.02
2023-02-01T17:28:01.797Z,15.65
2023-02-01T17:30:32.851Z,23.80
2023-02-01T17:33:13.215Z,6.82
2023-02-01T17:35:51.207Z,17.95
2023-02-01T17:38:19.391Z,15.10
2023-02-01T17:40:47.063Z,24.85
2023-02-01T17:43:15.609Z,24.50
2023-02-01T17:45:50.149Z,12.02
2023-02-01T17:48:17.961Z,11.82
2023-02-01T17:50:48.131Z,19.20
2023-02-01T17:53:16.949Z,13.90
2023-02-01T17:55:46.242Z,8.95
2023-02-01T17:58:14.965Z,4.65
2023-02-01T18:00:43.163Z,7.75
2023-02-01T18:03:30.399Z,17.30
2023-02-01T18:05:59.503Z,6.40
2023-02-01T18:08:31.114Z,4.80
2023-02-01T18:11:00.946Z,9.25
2023-02-01T18:13:32.972Z,8.13
2023-02-01T18:16:02.144Z,4.80
2023-02-01T18:18:31.305Z,27.40
2023-02-01T18:20:59.489Z,10.10
2023-02-01T18:23:27.352Z,16.83
2023-02-01T18:25:55.002Z,10.07
2023-02-01T18:28:22.825Z,6.53
2023-02-01T18:30:51.930Z,7.25
2023-02-01T18:33:20.800Z,17.30
2023-02-01T18:35:48.605Z,18.95
2023-02-01T18:38:16.568Z,9.90
2023-02-01T18:40:54.534Z,11.32
2023-02-01T18:43:22.536Z,6.60
2023-02-01T18:45:50.310Z,17.23
2023-02-01T18:48:19.690Z,17.45
2023-02-01T18:50:47.682Z,18.13
2023-02-01T18:53:27.138Z,10.30
2023-02-01T18:55:55.812Z,4.05
2023-02-01T18:58:26.521Z,7.20
2023-02-01T19:00:56.494Z,10.23
2023-02-01T19:03:27.140Z,3.20
2023-02-01T19:05:58.259Z,8.63
2023-02-01T19:08:26.459Z,2.33
2023-02-01T19:10:54.931Z,4.00
2023-02-01T19:13:25.986Z,4.10
2023-02-01T19:15:56.282Z,3.72
2023-02-01T19:18:24.160Z,2.70
2023-02-01T19:20:54.722Z,11.52
2023-02-01T19:23:22.583Z,2.50
2023-02-01T19:25:50.385Z,1.02
2023-02-01T19:28:18.223Z,2.88
2023-02-01T19:30:46.073Z,3.35
2023-02-01T19:33:13.900Z,2.88
2023-02-01T19:35:41.640Z,4.82
2023-02-01T19:38:11.476Z,3.47
2023-02-01T19:40:39.141Z,2.70
2023-02-01T19:43:09.160Z,4.32
2023-02-01T19:45:36.969Z,3.80
2023-02-01T19:48:07.530Z,3.30
2023-02-01T19:50:35.623Z,3.50
2023-02-01T19:53:03.335Z,2.33
2023-02-01T19:55:31.044Z,2.50
2023-02-01T19:57:58.853Z,2.55
2023-02-01T20:00:25.740Z,3.25
2023-02-01T20:02:53.457Z,4.22
2023-02-01T20:05:23.466Z,2.97
2023-02-01T20:07:51.469Z,2.42
2023-02-01T20:10:19.683Z,2.00
2023-02-01T20:12:53.392Z,2.40
2023-02-01T20:15:24.795Z,2.20
2023-02-01T20:17:52.577Z,2.65
2023-02-01T20:20:20.439Z,1.52
2023-02-01T20:22:48.092Z,2.25
2023-02-01T20:25:19.019Z,2.05
2023-02-01T20:27:47.549Z,2.05
2023-02-01T20:30:19.974Z,1.85
2023-02-01T20:32:51.000Z,1.90
2023-02-01T20:35:19.349Z,2.72
2023-02-01T20:37:47.002Z,1.45
2023-02-01T20:40:14.775Z,2.67
2023-02-01T20:42:42.474Z,1.75
2023-02-01T20:45:10.359Z,5.15
2023-02-01T20:47:37.970Z,3.33
2023-02-01T20:50:06.445Z,2.55
2023-02-01T20:52:34.009Z,1.75
2023-02-01T20:55:01.704Z,3.80
2023-02-01T20:57:29.335Z,4.03
2023-02-01T20:59:57.027Z,2.53
2023-02-01T21:02:25.042Z,3.72
2023-02-01T21:04:52.898Z,2.75
2023-02-01T21:07:20.477Z,3.10
2023-02-01T21:09:48.199Z,4.53
2023-02-01T21:12:16.327Z,4.03
2023-02-01T21:14:43.976Z,5.10
2023-02-01T21:17:14.155Z,2.88
2023-02-01T21:19:44.974Z,4.05
2023-02-01T21:22:13.005Z,1.55
2023-02-01T21:24:44.011Z,4.30
2023-02-01T21:27:14.711Z,3.65
2023-02-01T21:29:42.496Z,4.28
2023-02-01T21:32:10.765Z,2.25
2023-02-01T21:34:38.484Z,3.90
2023-02-01T21:37:06.054Z,2.00
2023-02-01T21:39:36.098Z,4.38
2023-02-01T21:42:18.255Z,2.55
2023-02-01T21:44:47.731Z,2.97
2023-02-01T21:47:18.734Z,2.33
2023-02-01T21:49:49.193Z,4.15
2023-02-01T21:52:21.070Z,5.00
2023-02-01T21:54:57.043Z,1.65
2023-02-01T21:57:24.701Z,4.00
2023-02-01T21:59:52.355Z,2.40
2023-02-01T22:02:20.315Z,2.25
2023-02-01T22:04:50.446Z,2.00
2023-02-01T22:07:18.340Z,2.70
2023-02-01T22:09:46.297Z,4.03
2023-02-01T22:12:14.803Z,2.75
2023-02-01T22:14:44.839Z,3.50
2023-02-01T22:17:15.539Z,2.95
2023-02-01T22:19:43.225Z,3.55
2023-02-01T22:22:11.859Z,2.42
2023-02-01T22:24:41.989Z,3.10
2023-02-01T22:29:42.262Z,3.60
2023-02-01T22:32:10.095Z,2.80
2023-02-01T22:34:37.778Z,3.30
2023-02-01T22:37:05.486Z,1.90
2023-02-01T22:39:33.310Z,4.00
2023-02-01T22:42:03.633Z,2.83
2023-02-01T22:44:31.334Z,1.98
2023-02-01T22:46:59.202Z,1.67
2023-02-01T22:49:26.932Z,2.25
2023-02-01T22:51:55.844Z,2.63
2023-02-01T22:54:23.660Z,2.53
2023-02-01T22:56:51.356Z,1.95
2023-02-01T22:59:18.996Z,3.42
2023-02-01T23:01:46.797Z,3.25
2023-02-01T23:04:15.365Z,1.50
2023-02-01T23:06:43.096Z,4.60
2023-02-01T23:09:22.765Z,2.10
2023-02-01T23:11:51.184Z,2.17
2023-02-01T23:14:19.700Z,2.38
2023-02-01T23:16:48.218Z,4.03
2023-02-01T23:19:15.971Z,1.80
2023-02-01T23:21:43.642Z,3.85
2023-02-01T23:24:11.464Z,2.92
2023-02-01T23:26:41.805Z,4.30
2023-02-01T23:29:11.014Z,2.08
2023-02-01T23:31:38.786Z,7.13
2023-02-01T23:34:06.546Z,2.80
2023-02-01T23:36:34.363Z,2.72
2023-02-01T23:39:02.217Z,1.90
2023-02-01T23:41:30.289Z,2.63
2023-02-01T23:43:58.102Z,3.13
2023-02-01T23:46:31.037Z,1.80
2023-02-01T23:48:58.931Z,1.45
2023-02-01T23:51:27.118Z,1.50
2023-02-01T23:53:55.263Z,2.20
2023-02-01T23:56:27.422Z,2.70
2023-02-01T23:58:56.965Z,1.50
